sensor_id;sensor_type;location;lat;lon;timestamp;P1;durP1;ratioP1;P2;durP2;ratioP2
32347;SDS011;18821;44.800;10.326;2023-04-25T00:01:39;4.07;;;0.90;;
32347;SDS011;18821;44.800;10.326;2023-04-25T00:04:05;4.15;;;1.13;;
32347;SDS011;18821;44.800;10.326;2023-04-25T00:06:34;2.22;;;1.55;;
32347;SDS011;18821;44.800;10.326;2023-04-25T00:09:02;2.85;;;1.42;;
32347;SDS011;18821;44.800;10.326;2023-04-25T00:11:35;2.85;;;1.33;;
32347;SDS011;18821;44.800;10.326;2023-04-25T00:14:02;1.40;;;1.10;;
32347;SDS011;18821;44.800;10.326;2023-04-25T00:16:28;2.22;;;1.25;;
32347;SDS011;18821;44.800;10.326;2023-04-25T00:18:58;4.18;;;1.30;;
32347;SDS011;18821;44.800;10.326;2023-04-25T00:21:24;2.90;;;1.20;;
32347;SDS011;18821;44.800;10.326;2023-04-25T00:23:52;4.00;;;1.63;;
32347;SDS011;18821;44.800;10.326;2023-04-25T00:26:18;4.20;;;1.30;;
32347;SDS011;18821;44.800;10.326;2023-04-25T00:28:46;2.97;;;2.33;;
32347;SDS011;18821;44.800;10.326;2023-04-25T00:31:12;1.92;;;1.33;;
32347;SDS011;18821;44.800;10.326;2023-04-25T00:33:38;1.52;;;1.00;;
32347;SDS011;18821;44.800;10.326;2023-04-25T00:36:05;5.28;;;1.60;;
32347;SDS011;18821;44.800;10.326;2023-04-25T00:38:31;3.40;;;1.45;;
32347;SDS011;18821;44.800;10.326;2023-04-25T00:40:57;5.13;;;1.63;;
32347;SDS011;18821;44.800;10.326;2023-04-25T00:43:25;2.70;;;1.40;;
32347;SDS011;18821;44.800;10.326;2023-04-25T00:45:55;2.88;;;1.55;;
32347;SDS011;18821;44.800;10.326;2023-04-25T00:48:23;2.45;;;1.50;;
32347;SDS011;18821;44.800;10.326;2023-04-25T00:50:53;6.30;;;1.50;;
32347;SDS011;18821;44.800;10.326;2023-04-25T00:53:23;5.05;;;1.40;;
32347;SDS011;18821;44.800;10.326;2023-04-25T00:55:51;3.25;;;1.67;;
32347;SDS011;18821;44.800;10.326;2023-04-25T00:58:18;4.13;;;1.60;;
32347;SDS011;18821;44.800;10.326;2023-04-25T01:00:45;7.07;;;1.75;;
32347;SDS011;18821;44.800;10.326;2023-04-25T01:03:13;5.50;;;1.60;;
32347;SDS011;18821;44.800;10.326;2023-04-25T01:05:41;2.22;;;1.40;;
32347;SDS011;18821;44.800;10.326;2023-04-25T01:08:08;4.30;;;1.80;;
32347;SDS011;18821;44.800;10.326;2023-04-25T01:10:35;2.30;;;1.70;;
32347;SDS011;18821;44.800;10.326;2023-04-25T01:13:02;7.82;;;2.55;;
32347;SDS011;18821;44.800;10.326;2023-04-25T01:15:28;5.45;;;2.05;;
32347;SDS011;18821;44.800;10.326;2023-04-25T01:17:54;4.70;;;1.50;;
32347;SDS011;18821;44.800;10.326;2023-04-25T01:20:21;4.20;;;1.80;;
32347;SDS011;18821;44.800;10.326;2023-04-25T01:22:48;3.13;;;1.70;;
32347;SDS011;18821;44.800;10.326;2023-04-25T01:25:16;3.55;;;1.80;;
32347;SDS011;18821;44.800;10.326;2023-04-25T01:27:43;5.93;;;2.10;;
32347;SDS011;18821;44.800;10.326;2023-04-25T01:30:09;8.68;;;1.85;;
32347;SDS011;18821;44.800;10.326;2023-04-25T01:32:38;3.92;;;1.83;;
32347;SDS011;18821;44.800;10.326;2023-04-25T01:35:05;4.75;;;1.88;;
32347;SDS011;18821;44.800;10.326;2023-04-25T01:37:38;8.50;;;2.17;;
32347;SDS011;18821;44.800;10.326;2023-04-25T01:40:05;3.40;;;1.90;;
32347;SDS011;18821;44.800;10.326;2023-04-25T01:42:33;4.55;;;2.05;;
32347;SDS011;18821;44.800;10.326;2023-04-25T01:45:01;5.47;;;2.00;;
32347;SDS011;18821;44.800;10.326;2023-04-25T01:47:28;3.97;;;2.55;;
32347;SDS011;18821;44.800;10.326;2023-04-25T01:49:54;5.03;;;2.10;;
32347;SDS011;18821;44.800;10.326;2023-04-25T01:52:21;5.43;;;2.13;;
32347;SDS011;18821;44.800;10.326;2023-04-25T01:54:48;6.10;;;2.22;;
32347;SDS011;18821;44.800;10.326;2023-04-25T01:57:17;3.20;;;2.13;;
32347;SDS011;18821;44.800;10.326;2023-04-25T01:59:43;6.70;;;2.60;;
32347;SDS011;18821;44.800;10.326;2023-04-25T02:02:36;4.95;;;2.30;;
32347;SDS011;18821;44.800;10.326;2023-04-25T02:05:03;3.40;;;2.05;;
32347;SDS011;18821;44.800;10.326;2023-04-25T02:07:31;4.68;;;2.30;;
32347;SDS011;18821;44.800;10.326;2023-04-25T02:09:58;5.90;;;2.30;;
32347;SDS011;18821;44.800;10.326;2023-04-25T02:12:26;6.25;;;2.05;;
32347;SDS011;18821;44.800;10.326;2023-04-25T02:15:11;5.63;;;2.08;;
32347;SDS011;18821;44.800;10.326;2023-04-25T02:17:59;3.10;;;2.10;;
32347;SDS011;18821;44.800;10.326;2023-04-25T02:20:25;5.95;;;2.10;;
32347;SDS011;18821;44.800;10.326;2023-04-25T02:23:12;4.53;;;2.17;;
32347;SDS011;18821;44.800;10.326;2023-04-25T02:25:38;4.63;;;2.38;;
32347;SDS011;18821;44.800;10.326;2023-04-25T02:28:04;6.60;;;2.13;;
32347;SDS011;18821;44.800;10.326;2023-04-25T02:30:29;4.57;;;2.53;;
32347;SDS011;18821;44.800;10.326;2023-04-25T02:32:56;5.60;;;2.58;;
32347;SDS011;18821;44.800;10.326;2023-04-25T02:35:22;3.03;;;2.05;;
32347;SDS011;18821;44.800;10.326;2023-04-25T02:37:48;5.43;;;2.67;;
32347;SDS011;18821;44.800;10.326;2023-04-25T02:40:15;4.20;;;2.42;;
32347;SDS011;18821;44.800;10.326;2023-04-25T02:42:41;4.72;;;3.00;;
32347;SDS011;18821;44.800;10.326;2023-04-25T02:45:07;3.03;;;2.15;;
32347;SDS011;18821;44.800;10.326;2023-04-25T02:47:34;5.88;;;2.83;;
32347;SDS011;18821;44.800;10.326;2023-04-25T02:50:00;6.53;;;2.78;;
32347;SDS011;18821;44.800;10.326;2023-04-25T02:52:27;5.32;;;2.85;;
32347;SDS011;18821;44.800;10.326;2023-04-25T02:55:01;4.60;;;2.55;;
32347;SDS011;18821;44.800;10.326;2023-04-25T02:57:28;5.35;;;2.58;;
32347;SDS011;18821;44.800;10.326;2023-04-25T02:59:55;8.15;;;2.97;;
32347;SDS011;18821;44.800;10.326;2023-04-25T03:02:21;6.85;;;3.05;;
32347;SDS011;18821;44.800;10.326;2023-04-25T03:04:47;9.25;;;2.83;;
32347;SDS011;18821;44.800;10.326;2023-04-25T03:07:13;4.55;;;3.00;;
32347;SDS011;18821;44.800;10.326;2023-04-25T03:09:39;5.53;;;2.38;;
32347;SDS011;18821;44.800;10.326;2023-04-25T03:12:06;5.65;;;2.83;;
32347;SDS011;18821;44.800;10.326;2023-04-25T03:14:33;5.07;;;2.63;;
32347;SDS011;18821;44.800;10.326;2023-04-25T03:16:59;3.60;;;2.40;;
32347;SDS011;18821;44.800;10.326;2023-04-25T03:19:28;5.45;;;2.83;;
32347;SDS011;18821;44.800;10.326;2023-04-25T03:21:54;6.65;;;2.88;;
32347;SDS011;18821;44.800;10.326;2023-04-25T03:24:21;5.07;;;3.17;;
32347;SDS011;18821;44.800;10.326;2023-04-25T03:26:47;6.35;;;3.17;;
32347;SDS011;18821;44.800;10.326;2023-04-25T03:29:13;14.25;;;2.83;;
32347;SDS011;18821;44.800;10.326;2023-04-25T03:31:40;6.13;;;3.25;;
32347;SDS011;18821;44.800;10.326;2023-04-25T03:34:07;7.45;;;3.33;;
32347;SDS011;18821;44.800;10.326;2023-04-25T03:36:33;5.10;;;2.78;;
32347;SDS011;18821;44.800;10.326;2023-04-25T03:38:59;10.52;;;3.10;;
32347;SDS011;18821;44.800;10.326;2023-04-25T03:41:26;4.93;;;3.08;;
32347;SDS011;18821;44.800;10.326;2023-04-25T03:43:59;4.88;;;2.83;;
32347;SDS011;18821;44.800;10.326;2023-04-25T03:46:26;4.70;;;2.88;;
32347;SDS011;18821;44.800;10.326;2023-04-25T03:48:52;6.10;;;3.08;;
32347;SDS011;18821;44.800;10.326;2023-04-25T03:51:21;7.78;;;3.20;;
32347;SDS011;18821;44.800;10.326;2023-04-25T03:53:47;6.45;;;2.70;;
32347;SDS011;18821;44.800;10.326;2023-04-25T03:56:36;6.57;;;3.38;;
32347;SDS011;18821;44.800;10.326;2023-04-25T03:59:12;8.07;;;3.50;;
32347;SDS011;18821;44.800;10.326;2023-04-25T04:01:38;7.72;;;3.10;;
32347;SDS011;18821;44.800;10.326;2023-04-25T04:04:04;4.65;;;2.90;;
32347;SDS011;18821;44.800;10.326;2023-04-25T04:06:30;4.88;;;3.30;;
32347;SDS011;18821;44.800;10.326;2023-04-25T04:09:04;8.38;;;2.90;;
32347;SDS011;18821;44.800;10.326;2023-04-25T04:11:35;8.13;;;4.05;;
32347;SDS011;18821;44.800;10.326;2023-04-25T04:14:04;6.40;;;3.83;;
32347;SDS011;18821;44.800;10.326;2023-04-25T04:16:32;5.30;;;3.95;;
32347;SDS011;18821;44.800;10.326;2023-04-25T04:18:58;12.73;;;4.10;;
32347;SDS011;18821;44.800;10.326;2023-04-25T04:21:23;7.25;;;3.22;;
32347;SDS011;18821;44.800;10.326;2023-04-25T04:23:51;5.47;;;3.83;;
32347;SDS011;18821;44.800;10.326;2023-04-25T04:26:18;8.63;;;3.47;;
32347;SDS011;18821;44.800;10.326;2023-04-25T04:28:58;7.55;;;3.40;;
32347;SDS011;18821;44.800;10.326;2023-04-25T04:31:45;8.40;;;4.18;;
32347;SDS011;18821;44.800;10.326;2023-04-25T04:34:12;9.40;;;3.75;;
32347;SDS011;18821;44.800;10.326;2023-04-25T04:36:38;5.32;;;3.97;;
32347;SDS011;18821;44.800;10.326;2023-04-25T04:39:11;4.88;;;3.90;;
32347;SDS011;18821;44.800;10.326;2023-04-25T04:41:53;11.40;;;4.50;;
32347;SDS011;18821;44.800;10.326;2023-04-25T04:44:32;7.78;;;4.95;;
32347;SDS011;18821;44.800;10.326;2023-04-25T04:47:09;9.88;;;3.92;;
32347;SDS011;18821;44.800;10.326;2023-04-25T04:50:11;10.82;;;4.30;;
32347;SDS011;18821;44.800;10.326;2023-04-25T04:52:58;9.10;;;4.28;;
32347;SDS011;18821;44.800;10.326;2023-04-25T04:55:47;8.13;;;4.18;;
32347;SDS011;18821;44.800;10.326;2023-04-25T04:58:46;7.93;;;4.70;;
32347;SDS011;18821;44.800;10.326;2023-04-25T05:01:32;5.88;;;3.67;;
32347;SDS011;18821;44.800;10.326;2023-04-25T05:04:26;10.90;;;4.13;;
32347;SDS011;18821;44.800;10.326;2023-04-25T05:07:19;7.10;;;4.07;;
32347;SDS011;18821;44.800;10.326;2023-04-25T05:10:05;5.22;;;3.33;;
32347;SDS011;18821;44.800;10.326;2023-04-25T05:12:54;8.52;;;4.00;;
32347;SDS011;18821;44.800;10.326;2023-04-25T05:15:40;8.88;;;4.63;;
32347;SDS011;18821;44.800;10.326;2023-04-25T05:18:29;7.63;;;4.85;;
32347;SDS011;18821;44.800;10.326;2023-04-25T05:21:18;5.85;;;4.60;;
32347;SDS011;18821;44.800;10.326;2023-04-25T05:24:01;8.95;;;4.93;;
32347;SDS011;18821;44.800;10.326;2023-04-25T05:27:02;8.23;;;4.57;;
32347;SDS011;18821;44.800;10.326;2023-04-25T05:29:44;7.30;;;3.92;;
32347;SDS011;18821;44.800;10.326;2023-04-25T05:32:30;6.72;;;4.03;;
32347;SDS011;18821;44.800;10.326;2023-04-25T05:34:56;8.75;;;4.60;;
32347;SDS011;18821;44.800;10.326;2023-04-25T05:37:26;6.72;;;3.88;;
32347;SDS011;18821;44.800;10.326;2023-04-25T05:39:58;8.10;;;4.45;;
32347;SDS011;18821;44.800;10.326;2023-04-25T05:42:43;4.53;;;3.70;;
32347;SDS011;18821;44.800;10.326;2023-04-25T05:45:21;6.25;;;2.85;;
32347;SDS011;18821;44.800;10.326;2023-04-25T05:48:11;8.65;;;4.28;;
32347;SDS011;18821;44.800;10.326;2023-04-25T05:50:57;9.30;;;4.40;;
32347;SDS011;18821;44.800;10.326;2023-04-25T05:53:42;5.75;;;4.05;;
32347;SDS011;18821;44.800;10.326;2023-04-25T05:56:08;7.40;;;3.55;;
32347;SDS011;18821;44.800;10.326;2023-04-25T05:58:34;6.53;;;4.47;;
32347;SDS011;18821;44.800;10.326;2023-04-25T06:01:01;5.72;;;3.35;;
32347;SDS011;18821;44.800;10.326;2023-04-25T06:03:29;8.50;;;4.38;;
32347;SDS011;18821;44.800;10.326;2023-04-25T06:05:57;8.63;;;4.28;;
32347;SDS011;18821;44.800;10.326;2023-04-25T06:08:23;11.80;;;4.57;;
32347;SDS011;18821;44.800;10.326;2023-04-25T06:10:49;7.78;;;4.30;;
32347;SDS011;18821;44.800;10.326;2023-04-25T06:13:15;7.47;;;4.53;;
32347;SDS011;18821;44.800;10.326;2023-04-25T06:15:41;5.75;;;4.00;;
32347;SDS011;18821;44.800;10.326;2023-04-25T06:18:08;6.07;;;4.15;;
32347;SDS011;18821;44.800;10.326;2023-04-25T06:20:34;8.73;;;4.80;;
32347;SDS011;18821;44.800;10.326;2023-04-25T06:23:00;17.20;;;4.25;;
32347;SDS011;18821;44.800;10.326;2023-04-25T06:25:36;9.73;;;4.07;;
32347;SDS011;18821;44.800;10.326;2023-04-25T06:28:02;7.25;;;3.75;;
32347;SDS011;18821;44.800;10.326;2023-04-25T06:30:31;8.80;;;5.00;;
32347;SDS011;18821;44.800;10.326;2023-04-25T06:33:05;5.32;;;3.72;;
32347;SDS011;18821;44.800;10.326;2023-04-25T06:35:31;8.60;;;4.60;;
32347;SDS011;18821;44.800;10.326;2023-04-25T06:37:57;6.88;;;4.03;;
32347;SDS011;18821;44.800;10.326;2023-04-25T06:40:24;9.20;;;4.13;;
32347;SDS011;18821;44.800;10.326;2023-04-25T06:42:51;10.02;;;3.92;;
32347;SDS011;18821;44.800;10.326;2023-04-25T06:45:42;7.43;;;3.55;;
32347;SDS011;18821;44.800;10.326;2023-04-25T06:48:09;5.30;;;3.85;;
32347;SDS011;18821;44.800;10.326;2023-04-25T06:50:36;8.27;;;3.67;;
32347;SDS011;18821;44.800;10.326;2023-04-25T06:53:02;7.10;;;3.40;;
32347;SDS011;18821;44.800;10.326;2023-04-25T06:55:29;6.70;;;3.80;;
32347;SDS011;18821;44.800;10.326;2023-04-25T06:58:14;8.82;;;3.22;;
32347;SDS011;18821;44.800;10.326;2023-04-25T07:00:48;4.50;;;3.13;;
32347;SDS011;18821;44.800;10.326;2023-04-25T07:03:16;4.75;;;3.38;;
32347;SDS011;18821;44.800;10.326;2023-04-25T07:05:41;5.85;;;3.78;;
32347;SDS011;18821;44.800;10.326;2023-04-25T07:08:07;6.22;;;3.60;;
32347;SDS011;18821;44.800;10.326;2023-04-25T07:10:33;7.10;;;3.47;;
32347;SDS011;18821;44.800;10.326;2023-04-25T07:13:01;12.45;;;3.58;;
32347;SDS011;18821;44.800;10.326;2023-04-25T07:15:27;9.32;;;3.42;;
32347;SDS011;18821;44.800;10.326;2023-04-25T07:17:53;7.00;;;3.95;;
32347;SDS011;18821;44.800;10.326;2023-04-25T07:20:19;6.93;;;3.78;;
32347;SDS011;18821;44.800;10.326;2023-04-25T07:22:46;7.88;;;4.40;;
32347;SDS011;18821;44.800;10.326;2023-04-25T07:25:12;7.07;;;3.83;;
32347;SDS011;18821;44.800;10.326;2023-04-25T07:27:38;6.93;;;3.40;;
32347;SDS011;18821;44.800;10.326;2023-04-25T07:30:16;7.15;;;3.92;;
32347;SDS011;18821;44.800;10.326;2023-04-25T07:32:42;7.85;;;3.53;;
32347;SDS011;18821;44.800;10.326;2023-04-25T07:35:08;8.90;;;3.83;;
32347;SDS011;18821;44.800;10.326;2023-04-25T07:37:34;4.82;;;2.97;;
32347;SDS011;18821;44.800;10.326;2023-04-25T07:40:17;5.72;;;3.45;;
32347;SDS011;18821;44.800;10.326;2023-04-25T07:42:47;7.47;;;4.13;;
32347;SDS011;18821;44.800;10.326;2023-04-25T07:45:17;6.63;;;3.72;;
32347;SDS011;18821;44.800;10.326;2023-04-25T07:47:43;9.07;;;4.55;;
32347;SDS011;18821;44.800;10.326;2023-04-25T07:50:09;9.57;;;4.00;;
32347;SDS011;18821;44.800;10.326;2023-04-25T07:52:36;11.18;;;3.75;;
32347;SDS011;18821;44.800;10.326;2023-04-25T07:55:14;5.78;;;3.72;;
32347;SDS011;18821;44.800;10.326;2023-04-25T07:57:49;4.95;;;3.53;;
32347;SDS011;18821;44.800;10.326;2023-04-25T08:00:15;7.78;;;3.15;;
32347;SDS011;18821;44.800;10.326;2023-04-25T08:02:48;4.80;;;2.78;;
32347;SDS011;18821;44.800;10.326;2023-04-25T08:05:17;7.30;;;3.40;;
32347;SDS011;18821;44.800;10.326;2023-04-25T08:07:47;3.72;;;2.80;;
32347;SDS011;18821;44.800;10.326;2023-04-25T08:10:13;3.40;;;2.65;;
32347;SDS011;18821;44.800;10.326;2023-04-25T08:12:41;4.43;;;2.60;;
32347;SDS011;18821;44.800;10.326;2023-04-25T08:15:07;5.43;;;2.03;;
32347;SDS011;18821;44.800;10.326;2023-04-25T08:17:37;4.97;;;1.30;;
32347;SDS011;18821;44.800;10.326;2023-04-25T08:20:03;2.80;;;1.25;;
32347;SDS011;18821;44.800;10.326;2023-04-25T08:22:31;1.10;;;0.88;;
32347;SDS011;18821;44.800;10.326;2023-04-25T08:25:20;1.83;;;0.60;;
32347;SDS011;18821;44.800;10.326;2023-04-25T08:27:47;0.45;;;0.40;;
32347;SDS011;18821;44.800;10.326;2023-04-25T08:30:15;0.90;;;0.60;;
32347;SDS011;18821;44.800;10.326;2023-04-25T08:32:41;0.68;;;0.40;;
32347;SDS011;18821;44.800;10.326;2023-04-25T08:35:34;1.08;;;0.55;;
32347;SDS011;18821;44.800;10.326;2023-04-25T08:38:00;4.10;;;0.60;;
32347;SDS011;18821;44.800;10.326;2023-04-25T08:40:27;1.70;;;0.50;;
32347;SDS011;18821;44.800;10.326;2023-04-25T08:43:29;0.75;;;0.60;;
32347;SDS011;18821;44.800;10.326;2023-04-25T08:45:58;1.50;;;0.70;;
32347;SDS011;18821;44.800;10.326;2023-04-25T08:48:43;0.75;;;0.40;;
32347;SDS011;18821;44.800;10.326;2023-04-25T08:51:14;0.70;;;0.40;;
32347;SDS011;18821;44.800;10.326;2023-04-25T08:53:46;1.17;;;0.47;;
32347;SDS011;18821;44.800;10.326;2023-04-25T08:56:16;2.13;;;0.50;;
32347;SDS011;18821;44.800;10.326;2023-04-25T08:58:48;0.98;;;0.40;;
32347;SDS011;18821;44.800;10.326;2023-04-25T09:01:17;0.43;;;0.40;;
32347;SDS011;18821;44.800;10.326;2023-04-25T09:03:49;2.17;;;0.30;;
32347;SDS011;18821;44.800;10.326;2023-04-25T09:06:18;0.50;;;0.30;;
32347;SDS011;18821;44.800;10.326;2023-04-25T09:08:49;1.67;;;0.60;;
32347;SDS011;18821;44.800;10.326;2023-04-25T09:11:15;0.50;;;0.43;;
32347;SDS011;18821;44.800;10.326;2023-04-25T09:13:43;3.78;;;0.77;;
32347;SDS011;18821;44.800;10.326;2023-04-25T09:16:34;1.65;;;0.30;;
32347;SDS011;18821;44.800;10.326;2023-04-25T09:19:03;1.88;;;0.60;;
32347;SDS011;18821;44.800;10.326;2023-04-25T09:21:31;2.85;;;0.60;;
32347;SDS011;18821;44.800;10.326;2023-04-25T09:24:00;0.60;;;0.40;;
32347;SDS011;18821;44.800;10.326;2023-04-25T09:26:26;1.55;;;0.43;;
32347;SDS011;18821;44.800;10.326;2023-04-25T09:29:08;2.08;;;0.55;;
32347;SDS011;18821;44.800;10.326;2023-04-25T09:31:37;1.67;;;0.80;;
32347;SDS011;18821;44.800;10.326;2023-04-25T09:34:05;1.13;;;0.68;;
32347;SDS011;18821;44.800;10.326;2023-04-25T09:36:41;0.88;;;0.70;;
32347;SDS011;18821;44.800;10.326;2023-04-25T09:42:02;0.95;;;0.50;;
32347;SDS011;18821;44.800;10.326;2023-04-25T09:44:29;1.17;;;0.40;;
32347;SDS011;18821;44.800;10.326;2023-04-25T09:46:56;1.13;;;0.60;;
32347;SDS011;18821;44.800;10.326;2023-04-25T09:49:25;0.57;;;0.40;;
32347;SDS011;18821;44.800;10.326;2023-04-25T09:51:59;0.40;;;0.40;;
32347;SDS011;18821;44.800;10.326;2023-04-25T09:54:31;1.65;;;0.43;;
32347;SDS011;18821;44.800;10.326;2023-04-25T09:57:12;0.40;;;0.30;;
32347;SDS011;18821;44.800;10.326;2023-04-25T09:59:44;1.58;;;0.60;;
32347;SDS011;18821;44.800;10.326;2023-04-25T10:04:53;0.30;;;0.30;;
32347;SDS011;18821;44.800;10.326;2023-04-25T10:07:25;1.75;;;0.57;;
32347;SDS011;18821;44.800;10.326;2023-04-25T10:10:02;0.50;;;0.50;;
32347;SDS011;18821;44.800;10.326;2023-04-25T10:12:30;2.03;;;0.60;;
32347;SDS011;18821;44.800;10.326;2023-04-25T10:14:58;1.17;;;0.50;;
32347;SDS011;18821;44.800;10.326;2023-04-25T10:17:28;1.35;;;0.80;;
32347;SDS011;18821;44.800;10.326;2023-04-25T10:19:55;2.00;;;0.80;;
32347;SDS011;18821;44.800;10.326;2023-04-25T10:22:32;0.85;;;0.70;;
32347;SDS011;18821;44.800;10.326;2023-04-25T10:25:00;2.78;;;1.02;;
32347;SDS011;18821;44.800;10.326;2023-04-25T10:27:29;2.58;;;0.90;;
32347;SDS011;18821;44.800;10.326;2023-04-25T10:32:39;2.22;;;1.00;;
32347;SDS011;18821;44.800;10.326;2023-04-25T10:35:14;1.63;;;1.20;;
32347;SDS011;18821;44.800;10.326;2023-04-25T10:40:33;0.90;;;0.80;;
32347;SDS011;18821;44.800;10.326;2023-04-25T10:45:56;1.60;;;1.00;;
32347;SDS011;18821;44.800;10.326;2023-04-25T10:48:25;1.45;;;1.00;;
32347;SDS011;18821;44.800;10.326;2023-04-25T10:51:11;1.58;;;1.10;;
32347;SDS011;18821;44.800;10.326;2023-04-25T10:53:46;3.38;;;1.20;;
32347;SDS011;18821;44.800;10.326;2023-04-25T11:01:34;5.40;;;1.60;;
32347;SDS011;18821;44.800;10.326;2023-04-25T11:04:03;1.50;;;1.40;;
32347;SDS011;18821;44.800;10.326;2023-04-25T11:06:31;3.78;;;1.58;;
32347;SDS011;18821;44.800;10.326;2023-04-25T11:09:18;2.38;;;1.42;;
32347;SDS011;18821;44.800;10.326;2023-04-25T11:11:53;2.88;;;1.33;;
32347;SDS011;18821;44.800;10.326;2023-04-25T11:14:23;6.57;;;1.85;;
32347;SDS011;18821;44.800;10.326;2023-04-25T11:16:54;2.65;;;1.38;;
32347;SDS011;18821;44.800;10.326;2023-04-25T11:19:21;2.45;;;1.65;;
32347;SDS011;18821;44.800;10.326;2023-04-25T11:21:49;2.97;;;1.25;;
32347;SDS011;18821;44.800;10.326;2023-04-25T11:24:18;5.40;;;1.30;;
32347;SDS011;18821;44.800;10.326;2023-04-25T11:26:46;3.72;;;1.50;;
32347;SDS011;18821;44.800;10.326;2023-04-25T11:29:13;2.55;;;1.50;;
32347;SDS011;18821;44.800;10.326;2023-04-25T11:31:42;3.92;;;1.80;;
32347;SDS011;18821;44.800;10.326;2023-04-25T11:34:11;5.25;;;1.73;;
32347;SDS011;18821;44.800;10.326;2023-04-25T11:36:41;4.78;;;2.10;;
32347;SDS011;18821;44.800;10.326;2023-04-25T11:39:07;2.65;;;1.67;;
32347;SDS011;18821;44.800;10.326;2023-04-25T11:41:33;6.70;;;2.90;;
32347;SDS011;18821;44.800;10.326;2023-04-25T11:43:59;2.72;;;1.42;;
32347;SDS011;18821;44.800;10.326;2023-04-25T11:46:25;4.68;;;1.95;;
32347;SDS011;18821;44.800;10.326;2023-04-25T11:48:51;7.65;;;1.95;;
32347;SDS011;18821;44.800;10.326;2023-04-25T11:51:22;7.63;;;2.50;;
32347;SDS011;18821;44.800;10.326;2023-04-25T11:53:48;3.25;;;2.00;;
32347;SDS011;18821;44.800;10.326;2023-04-25T11:56:14;5.40;;;1.52;;
32347;SDS011;18821;44.800;10.326;2023-04-25T11:58:56;5.03;;;1.60;;
32347;SDS011;18821;44.800;10.326;2023-04-25T12:01:26;5.53;;;1.98;;
32347;SDS011;18821;44.800;10.326;2023-04-25T12:04:17;6.13;;;1.70;;
32347;SDS011;18821;44.800;10.326;2023-04-25T12:06:45;4.65;;;1.45;;
32347;SDS011;18821;44.800;10.326;2023-04-25T12:09:13;2.35;;;1.55;;
32347;SDS011;18821;44.800;10.326;2023-04-25T12:11:54;2.97;;;1.63;;
32347;SDS011;18821;44.800;10.326;2023-04-25T12:14:25;3.20;;;1.80;;
32347;SDS011;18821;44.800;10.326;2023-04-25T12:16:56;3.15;;;1.77;;
32347;SDS011;18821;44.800;10.326;2023-04-25T12:19:23;3.90;;;1.73;;
32347;SDS011;18821;44.800;10.326;2023-04-25T12:21:50;4.93;;;1.67;;
32347;SDS011;18821;44.800;10.326;2023-04-25T12:24:24;5.38;;;1.75;;
32347;SDS011;18821;44.800;10.326;2023-04-25T12:27:02;5.07;;;1.83;;
32347;SDS011;18821;44.800;10.326;2023-04-25T12:29:31;3.60;;;1.60;;
32347;SDS011;18821;44.800;10.326;2023-04-25T12:31:58;2.72;;;1.70;;
32347;SDS011;18821;44.800;10.326;2023-04-25T12:34:25;16.42;;;7.35;;
32347;SDS011;18821;44.800;10.326;2023-04-25T12:36:51;3.13;;;1.35;;
32347;SDS011;18821;44.800;10.326;2023-04-25T12:39:18;6.07;;;2.00;;
32347;SDS011;18821;44.800;10.326;2023-04-25T12:41:48;5.00;;;1.50;;
32347;SDS011;18821;44.800;10.326;2023-04-25T12:44:19;2.97;;;1.35;;
32347;SDS011;18821;44.800;10.326;2023-04-25T12:46:45;4.45;;;1.42;;
32347;SDS011;18821;44.800;10.326;2023-04-25T12:49:12;3.65;;;1.58;;
32347;SDS011;18821;44.800;10.326;2023-04-25T12:51:38;5.95;;;1.63;;
32347;SDS011;18821;44.800;10.326;2023-04-25T12:54:05;3.05;;;1.50;;
32347;SDS011;18821;44.800;10.326;2023-04-25T12:56:34;5.93;;;1.52;;
32347;SDS011;18821;44.800;10.326;2023-04-25T12:59:01;4.80;;;1.45;;
32347;SDS011;18821;44.800;10.326;2023-04-25T13:01:31;3.67;;;1.83;;
32347;SDS011;18821;44.800;10.326;2023-04-25T13:03:57;11.02;;;2.03;;
32347;SDS011;18821;44.800;10.326;2023-04-25T13:06:23;4.10;;;1.92;;
32347;SDS011;18821;44.800;10.326;2023-04-25T13:08:49;5.38;;;1.30;;
32347;SDS011;18821;44.800;10.326;2023-04-25T13:11:15;7.15;;;2.13;;
32347;SDS011;18821;44.800;10.326;2023-04-25T13:13:41;4.10;;;1.52;;
32347;SDS011;18821;44.800;10.326;2023-04-25T13:16:07;9.55;;;1.70;;
32347;SDS011;18821;44.800;10.326;2023-04-25T13:18:34;7.38;;;1.70;;
32347;SDS011;18821;44.800;10.326;2023-04-25T13:21:00;2.40;;;1.40;;
32347;SDS011;18821;44.800;10.326;2023-04-25T13:23:26;4.50;;;1.83;;
32347;SDS011;18821;44.800;10.326;2023-04-25T13:25:53;3.20;;;1.40;;
32347;SDS011;18821;44.800;10.326;2023-04-25T13:28:20;3.92;;;1.48;;
32347;SDS011;18821;44.800;10.326;2023-04-25T13:30:47;2.72;;;1.50;;
32347;SDS011;18821;44.800;10.326;2023-04-25T13:33:13;7.97;;;1.92;;
32347;SDS011;18821;44.800;10.326;2023-04-25T13:35:40;3.95;;;1.27;;
32347;SDS011;18821;44.800;10.326;2023-04-25T13:38:06;4.07;;;1.50;;
32347;SDS011;18821;44.800;10.326;2023-04-25T13:40:32;7.55;;;1.60;;
32347;SDS011;18821;44.800;10.326;2023-04-25T13:42:58;2.97;;;1.17;;
32347;SDS011;18821;44.800;10.326;2023-04-25T13:45:24;2.67;;;1.25;;
32347;SDS011;18821;44.800;10.326;2023-04-25T13:47:50;2.22;;;1.60;;
32347;SDS011;18821;44.800;10.326;2023-04-25T13:50:17;3.08;;;1.52;;
32347;SDS011;18821;44.800;10.326;2023-04-25T13:52:45;2.80;;;1.20;;
32347;SDS011;18821;44.800;10.326;2023-04-25T13:55:11;4.68;;;1.38;;
32347;SDS011;18821;44.800;10.326;2023-04-25T13:57:37;2.25;;;1.20;;
32347;SDS011;18821;44.800;10.326;2023-04-25T14:00:04;2.92;;;1.15;;
32347;SDS011;18821;44.800;10.326;2023-04-25T14:02:37;7.03;;;1.20;;
32347;SDS011;18821;44.800;10.326;2023-04-25T14:05:04;3.58;;;1.40;;
32347;SDS011;18821;44.800;10.326;2023-04-25T14:07:30;3.58;;;1.10;;
32347;SDS011;18821;44.800;10.326;2023-04-25T14:09:57;2.05;;;1.20;;
32347;SDS011;18821;44.800;10.326;2023-04-25T14:12:24;1.77;;;1.10;;
32347;SDS011;18821;44.800;10.326;2023-04-25T14:14:51;2.00;;;1.20;;
32347;SDS011;18821;44.800;10.326;2023-04-25T14:17:18;1.45;;;1.00;;
32347;SDS011;18821;44.800;10.326;2023-04-25T14:19:45;2.33;;;0.75;;
32347;SDS011;18821;44.800;10.326;2023-04-25T14:22:16;3.75;;;0.93;;
32347;SDS011;18821;44.800;10.326;2023-04-25T14:24:42;1.80;;;1.00;;
32347;SDS011;18821;44.800;10.326;2023-04-25T14:27:08;4.18;;;1.17;;
32347;SDS011;18821;44.800;10.326;2023-04-25T14:29:34;3.25;;;1.00;;
32347;SDS011;18821;44.800;10.326;2023-04-25T14:32:00;2.65;;;1.20;;
32347;SDS011;18821;44.800;10.326;2023-04-25T14:34:26;1.77;;;1.30;;
32347;SDS011;18821;44.800;10.326;2023-04-25T14:36:52;2.03;;;0.80;;
32347;SDS011;18821;44.800;10.326;2023-04-25T14:39:18;1.15;;;0.90;;
32347;SDS011;18821;44.800;10.326;2023-04-25T14:41:44;3.35;;;1.10;;
32347;SDS011;18821;44.800;10.326;2023-04-25T14:44:10;1.45;;;1.00;;
32347;SDS011;18821;44.800;10.326;2023-04-25T14:46:36;2.90;;;0.82;;
32347;SDS011;18821;44.800;10.326;2023-04-25T14:49:02;1.63;;;0.93;;
32347;SDS011;18821;44.800;10.326;2023-04-25T14:51:29;3.30;;;1.10;;
32347;SDS011;18821;44.800;10.326;2023-04-25T14:53:56;1.23;;;0.98;;
32347;SDS011;18821;44.800;10.326;2023-04-25T14:56:22;3.28;;;1.48;;
32347;SDS011;18821;44.800;10.326;2023-04-25T14:58:48;2.05;;;1.02;;
32347;SDS011;18821;44.800;10.326;2023-04-25T15:01:14;3.05;;;1.27;;
32347;SDS011;18821;44.800;10.326;2023-04-25T15:03:40;3.88;;;1.13;;
32347;SDS011;18821;44.800;10.326;2023-04-25T15:06:06;2.55;;;1.10;;
32347;SDS011;18821;44.800;10.326;2023-04-25T15:08:33;2.63;;;1.38;;
32347;SDS011;18821;44.800;10.326;2023-04-25T15:10:59;1.73;;;1.08;;